Time;durP1;ratioP1;P1;durP2;ratioP2;P2;SDS_P1;SDS_P2;PMS_P1;PMS_P2;Temp;Humidity;BMP_temperature;BMP_pressure;BME280_temperature;BME280_humidity;BME280_pressure;Samples;Min_cycle;Max_cycle;Signal;HPM_P1;HPM_P2
2023/12/16 00:01:50;;;;;;;;;24.75;21.75;;;;;-146.67;48.54;77435.75;5041156;28;62726;-74
2023/12/16 00:04:16;;;;;;;;;27.00;22.00;;;;;-146.67;48.32;77423.78;5040414;28;62061;-74
2023/12/16 00:06:41;;;;;;;;;25.75;21.00;;;;;-146.67;48.29;77419.78;5042160;28;61925;-74
2023/12/16 00:09:06;;;;;;;;;25.50;21.25;;;;;-146.67;48.21;77419.78;5041111;28;61811;-74
2023/12/16 00:11:32;;;;;;;;;27.00;20.75;;;;;-146.67;48.24;77415.78;5040398;28;64680;-74
2023/12/16 00:13:57;;;;;;;;;28.00;24.00;;;;;-146.67;48.14;77413.78;5040791;28;61750;-74
2023/12/16 00:16:24;;;;;;;;;28.25;23.75;;;;;-146.67;48.24;77413.78;5042262;28;61805;-74
2023/12/16 00:18:49;;;;;;;;;27.50;19.75;;;;;-146.67;48.18;77415.78;5042306;28;61867;-74
2023/12/16 00:21:15;;;;;;;;;28.00;21.50;;;;;-146.67;48.32;77417.78;5049556;28;62647;-74
2023/12/16 00:23:40;;;;;;;;;24.50;22.25;;;;;-146.67;48.27;77419.78;5062234;28;61832;-74
2023/12/16 00:26:05;;;;;;;;;23.75;19.75;;;;;-146.67;48.54;77423.78;5062277;28;61763;-74
2023/12/16 00:28:31;;;;;;;;;19.25;17.25;;;;;-146.67;48.43;77429.78;5061019;28;61873;-74
2023/12/16 00:30:57;;;;;;;;;30.75;21.00;;;;;-146.67;48.64;77431.78;5061569;28;62493;-74
2023/12/16 00:33:22;;;;;;;;;19.25;19.25;;;;;-146.67;48.28;77439.75;5061745;28;61733;-74
2023/12/16 00:35:48;;;;;;;;;26.25;20.50;;;;;-146.67;48.18;77447.75;5061795;28;61988;-75
2023/12/16 00:38:13;;;;;;;;;23.00;19.00;;;;;-146.67;48.13;77451.75;5062463;28;61785;-75
2023/12/16 00:40:38;;;;;;;;;18.75;17.50;;;;;-146.67;48.26;77447.75;5061251;28;61800;-75
2023/12/16 00:43:04;;;;;;;;;23.75;21.25;;;;;-146.67;47.65;77451.75;5062404;28;61777;-75
2023/12/16 00:45:29;;;;;;;;;23.75;18.50;;;;;-146.67;47.68;77455.75;5061935;28;61837;-74
2023/12/16 00:47:54;;;;;;;;;20.25;18.25;;;;;-146.67;48.04;77451.75;5061857;28;61875;-74
2023/12/16 00:50:20;;;;;;;;;26.75;22.50;;;;;-146.67;47.74;77449.75;5059243;28;64921;-75
2023/12/16 00:52:45;;;;;;;;;20.50;17.25;;;;;-146.67;47.04;77463.75;5061689;28;61781;-74
2023/12/16 00:55:10;;;;;;;;;18.75;17.25;;;;;-146.67;47.04;77471.72;5062030;28;61751;-75
2023/12/16 00:57:37;;;;;;;;;22.00;14.00;;;;;-146.67;47.43;77471.72;5062064;28;61743;-74
2023/12/16 01:00:03;;;;;;;;;17.75;16.25;;;;;-146.67;47.21;77453.75;5061076;28;62000;-74
2023/12/16 01:02:28;;;;;;;;;17.75;16.50;;;;;-146.67;46.71;77461.75;5061433;28;61908;-74
2023/12/16 01:04:53;;;;;;;;;19.50;17.25;;;;;-146.67;47.10;77463.75;5061727;28;62080;-74
2023/12/16 01:07:19;;;;;;;;;18.75;16.50;;;;;-146.67;46.96;77469.72;5061541;28;61891;-74
2023/12/16 01:09:44;;;;;;;;;23.00;17.00;;;;;-146.67;47.29;77469.72;5060813;28;61901;-74
2023/12/16 01:12:09;;;;;;;;;14.75;13.25;;;;;-146.67;47.53;77471.72;5060322;28;61831;-74
2023/12/16 01:14:35;;;;;;;;;16.75;13.50;;;;;-146.67;47.59;77479.72;5061502;28;61777;-74
2023/12/16 01:17:00;;;;;;;;;27.25;17.50;;;;;-146.67;47.77;77479.72;5061736;28;61856;-74
2023/12/16 01:19:26;;;;;;;;;24.50;20.25;;;;;-146.67;48.07;77475.72;5042100;28;63702;-74
2023/12/16 01:21:52;;;;;;;;;25.50;17.00;;;;;-146.67;48.11;77473.72;5055285;28;62188;-74
2023/12/16 01:24:17;;;;;;;;;21.25;19.75;;;;;-146.67;48.21;77473.72;5061582;28;61851;-74
2023/12/16 01:26:42;;;;;;;;;30.00;20.75;;;;;-146.67;48.26;77469.72;5060135;28;62174;-75
2023/12/16 01:29:08;;;;;;;;;24.00;19.75;;;;;-146.67;48.32;77467.72;5059721;28;63988;-74
2023/12/16 01:31:33;;;;;;;;;26.25;20.50;;;;;-146.67;48.05;77469.72;5060888;28;62040;-74
2023/12/16 01:33:58;;;;;;;;;22.75;17.50;;;;;-146.67;48.08;77475.72;5061785;28;61695;-74
2023/12/16 01:36:24;;;;;;;;;21.50;19.00;;;;;-146.67;47.50;77481.72;5064942;28;61760;-74
2023/12/16 01:38:49;;;;;;;;;19.75;17.00;;;;;-146.67;47.26;77495.69;5064277;28;61730;-74
2023/12/16 01:41:14;;;;;;;;;23.00;21.75;;;;;-146.67;47.18;77503.69;5064854;28;61845;-74
2023/12/16 01:43:40;;;;;;;;;24.50;19.00;;;;;-146.67;47.38;77511.69;5065028;28;61916;-74
2023/12/16 01:46:06;;;;;;;;;21.00;19.75;;;;;-146.67;47.62;77521.69;5063296;28;62068;-74
2023/12/16 01:48:33;;;;;;;;;21.75;16.75;;;;;-146.67;47.67;77517.69;5063106;28;61758;-74
2023/12/16 01:51:00;;;;;;;;;26.50;19.25;;;;;-146.67;47.59;77529.66;5062258;28;61969;-74
2023/12/16 01:53:27;;;;;;;;;19.00;17.00;;;;;-146.67;47.74;77555.63;5063824;28;61880;-74
2023/12/16 01:55:53;;;;;;;;;20.25;20.00;;;;;-146.67;47.91;77561.63;5064683;28;61999;-74
2023/12/16 01:58:18;;;;;;;;;26.00;23.00;;;;;-146.67;47.85;77573.63;5064214;28;62247;-74
2023/12/16 02:00:46;;;;;;;;;28.50;22.75;;;;;-146.67;48.16;77575.63;5063860;28;61808;-74
2023/12/16 02:03:14;;;;;;;;;29.00;21.25;;;;;-146.67;48.43;77579.63;5064903;28;61865;-74
2023/12/16 02:05:40;;;;;;;;;25.25;21.00;;;;;-146.67;48.54;77573.63;5064230;28;61889;-75
2023/12/16 02:08:06;;;;;;;;;26.25;19.25;;;;;-146.67;48.49;77571.63;5064035;28;61912;-74
2023/12/16 02:10:31;;;;;;;;;27.00;23.00;;;;;-146.67;48.48;77581.63;5064428;28;61991;-74
2023/12/16 02:12:56;;;;;;;;;28.50;24.25;;;;;-146.67;48.58;77585.63;5064174;28;61797;-74
2023/12/16 02:15:22;;;;;;;;;29.25;22.25;;;;;-146.67;48.79;77583.63;5064354;28;61940;-74
2023/12/16 02:17:47;;;;;;;;;28.75;22.00;;;;;-146.67;48.70;77587.59;5063660;28;61813;-74
2023/12/16 02:20:14;;;;;;;;;21.50;19.50;;;;;-146.67;48.87;77583.63;5063583;28;61848;-74
2023/12/16 02:22:39;;;;;;;;;21.50;15.00;;;;;-146.67;49.02;77577.63;5063492;28;61875;-74
2023/12/16 02:25:09;;;;;;;;;25.00;22.25;;;;;-146.67;49.04;77575.63;5062970;28;61788;-74
2023/12/16 02:27:34;;;;;;;;;23.00;23.00;;;;;-146.67;48.85;77579.63;5063606;28;61719;-75
2023/12/16 02:30:00;;;;;;;;;40.25;27.50;;;;;-146.67;48.82;77581.63;5063368;28;61858;-74
2023/12/16 02:32:25;;;;;;;;;32.75;24.25;;;;;-146.67;48.70;77589.59;5064537;28;61748;-74
2023/12/16 02:34:50;;;;;;;;;29.50;26.25;;;;;-146.67;48.87;77597.59;5062424;28;61789;-73
2023/12/16 02:37:16;;;;;;;;;21.75;21.00;;;;;-146.67;48.80;77601.59;5063309;28;62105;-74
2023/12/16 02:39:41;;;;;;;;;25.50;21.25;;;;;-146.67;48.90;77611.59;5062564;28;61916;-74
2023/12/16 02:42:06;;;;;;;;;28.00;24.00;;;;;-146.67;49.05;77613.59;5062710;28;61988;-74
2023/12/16 02:44:32;;;;;;;;;22.50;20.75;;;;;-146.67;49.15;77619.56;5063966;28;61787;-74
2023/12/16 02:46:57;;;;;;;;;23.00;21.25;;;;;-146.67;48.97;77623.56;5060335;28;63577;-74
2023/12/16 02:49:22;;;;;;;;;21.75;19.25;;;;;-146.67;49.17;77627.56;5063236;28;61694;-74
2023/12/16 02:51:48;;;;;;;;;26.25;21.25;;;;;-146.67;48.91;77639.56;5063349;28;61982;-74
2023/12/16 02:54:13;;;;;;;;;29.75;22.75;;;;;-146.67;48.96;77641.56;5063814;28;61700;-75
2023/12/16 02:56:39;;;;;;;;;22.25;19.50;;;;;-146.67;49.00;77641.56;5063188;28;62939;-74
2023/12/16 02:59:04;;;;;;;;;24.00;19.75;;;;;-146.67;49.16;77649.53;5063090;28;61824;-74
2023/12/16 03:01:29;;;;;;;;;24.00;21.25;;;;;-146.67;49.04;77647.56;5063611;28;62134;-74
2023/12/16 03:03:55;;;;;;;;;29.75;26.75;;;;;-146.67;49.24;77645.56;5063669;28;61652;-74
2023/12/16 03:06:20;;;;;;;;;30.25;22.00;;;;;-146.67;49.12;77651.53;5061293;28;63638;-74
2023/12/16 03:08:45;;;;;;;;;27.25;23.25;;;;;-146.67;49.16;77655.53;5063559;28;61812;-74
2023/12/16 03:11:11;;;;;;;;;27.50;22.75;;;;;-146.67;49.33;77667.53;5061936;28;62146;-74
2023/12/16 03:13:36;;;;;;;;;25.50;22.75;;;;;-146.67;49.51;77655.53;5063340;28;62073;-74
2023/12/16 03:16:02;;;;;;;;;25.75;20.00;;;;;-146.67;49.62;77651.53;5062790;28;62284;-74
2023/12/16 03:18:27;;;;;;;;;24.25;21.25;;;;;-146.67;49.71;77643.56;5063556;28;61812;-74
2023/12/16 03:20:55;;;;;;;;;29.75;25.00;;;;;-146.67;49.63;77639.56;5062176;28;62386;-74
2023/12/16 03:23:20;;;;;;;;;24.75;19.25;;;;;-146.67;49.44;77635.56;5063587;28;61770;-74
2023/12/16 03:25:45;;;;;;;;;25.75;24.50;;;;;-146.67;49.56;77637.56;5062708;28;61904;-74
2023/12/16 03:28:11;;;;;;;;;21.00;21.00;;;;;-146.67;49.49;77627.56;5062935;28;62031;-74
2023/12/16 03:30:40;;;;;;;;;20.75;18.00;;;;;-146.67;49.19;77615.59;5061838;28;61903;-74
2023/12/16 03:33:08;;;;;;;;;25.75;17.00;;;;;-146.67;48.93;77613.59;5063274;28;61706;-74
2023/12/16 03:35:33;;;;;;;;;18.25;16.00;;;;;-146.67;48.88;77643.56;5062140;28;61754;-74
2023/12/16 03:38:00;;;;;;;;;17.50;15.25;;;;;-146.67;49.27;77633.56;5062928;28;61951;-74
2023/12/16 03:40:26;;;;;;;;;20.00;17.00;;;;;-146.67;49.12;77615.59;5063135;28;61859;-74
2023/12/16 03:42:51;;;;;;;;;14.75;14.75;;;;;-146.67;49.04;77599.59;5062786;28;61806;-74
2023/12/16 03:45:17;;;;;;;;;17.25;16.50;;;;;-146.67;49.00;77593.59;5060861;28;64924;-74
2023/12/16 03:47:42;;;;;;;;;20.75;16.00;;;;;-146.67;48.96;77587.59;5062861;28;61818;-74
2023/12/16 03:50:08;;;;;;;;;21.75;17.00;;;;;-146.67;48.86;77583.63;5062206;28;62111;-74
2023/12/16 03:52:33;;;;;;;;;22.75;18.50;;;;;-146.67;48.65;77597.59;5062797;28;61830;-74
2023/12/16 03:54:58;;;;;;;;;26.50;17.50;;;;;-146.67;49.11;77605.59;5062169;28;62079;-74
2023/12/16 03:57:24;;;;;;;;;22.75;18.25;;;;;-146.67;49.21;77585.63;5061838;28;61608;-74
2023/12/16 03:59:49;;;;;;;;;19.75;13.25;;;;;-146.67;49.04;77577.63;5062773;28;62046;-74
2023/12/16 04:02:14;;;;;;;;;20.75;16.00;;;;;-146.67;49.04;77569.63;5062661;28;61757;-74
2023/12/16 04:04:41;;;;;;;;;19.25;16.25;;;;;-146.67;48.79;77575.63;5062169;28;62745;-74
2023/12/16 04:07:06;;;;;;;;;21.75;13.00;;;;;-146.67;48.85;77581.63;5062313;28;62625;-74
2023/12/16 04:09:32;;;;;;;;;16.75;15.75;;;;;-146.67;48.82;77591.59;5062815;28;62068;-74
2023/12/16 04:11:57;;;;;;;;;20.75;15.75;;;;;-146.67;49.09;77573.63;5062250;28;62206;-74
2023/12/16 04:14:22;;;;;;;;;21.00;17.75;;;;;-146.67;49.02;77557.63;5061688;28;61800;-74
2023/12/16 04:16:48;;;;;;;;;17.00;16.50;;;;;-146.67;49.08;77559.63;5062708;28;61766;-74
2023/12/16 04:19:14;;;;;;;;;17.00;16.00;;;;;-146.67;48.94;77565.63;5060419;28;62192;-74
2023/12/16 04:21:40;;;;;;;;;18.75;16.00;;;;;-146.67;49.24;77567.63;5051608;28;61952;-74
2023/12/16 04:24:06;;;;;;;;;19.75;12.25;;;;;-146.67;49.26;77563.63;5041490;28;62045;-75
2023/12/16 04:26:31;;;;;;;;;12.75;12.75;;;;;-146.67;49.16;77549.66;5041822;28;61842;-74
2023/12/16 04:28:57;;;;;;;;;20.00;15.50;;;;;-146.67;49.29;77539.66;5040679;28;62792;-74
2023/12/16 04:31:22;;;;;;;;;17.50;14.75;;;;;-146.67;49.32;77543.66;5040730;28;62017;-74
2023/12/16 04:33:50;;;;;;;;;16.00;12.50;;;;;-146.67;49.21;77537.66;5041595;28;61775;-74
2023/12/16 04:36:16;;;;;;;;;16.25;13.50;;;;;-146.67;49.43;77543.66;5041494;28;61793;-74
2023/12/16 04:38:42;;;;;;;;;13.50;11.25;;;;;-146.67;49.37;77539.66;5041962;28;61850;-74
2023/12/16 04:41:12;;;;;;;;;17.75;13.75;;;;;-146.67;49.24;77533.66;5041594;28;61897;-74
2023/12/16 04:43:37;;;;;;;;;29.00;17.25;;;;;-146.67;49.15;77535.66;5040128;28;64070;-74
2023/12/16 04:46:03;;;;;;;;;15.50;13.00;;;;;-146.67;49.16;77537.66;5041967;28;61936;-75
2023/12/16 04:48:28;;;;;;;;;15.75;13.75;;;;;-146.67;49.31;77543.66;5041969;28;61751;-74
2023/12/16 04:50:54;;;;;;;;;17.00;14.50;;;;;-146.67;48.86;77553.66;5041198;28;61833;-75
2023/12/16 04:53:19;;;;;;;;;17.75;16.00;;;;;-146.67;49.06;77553.66;5041033;28;62730;-74
2023/12/16 04:55:44;;;;;;;;;24.25;16.50;;;;;-146.67;49.18;77557.63;5045953;28;61711;-74
2023/12/16 04:58:10;;;;;;;;;14.00;13.00;;;;;-146.67;49.37;77547.66;5040236;28;61740;-74
2023/12/16 05:00:35;;;;;;;;;17.50;13.25;;;;;-146.67;49.39;77563.63;5040356;28;61711;-74
2023/12/16 05:03:01;;;;;;;;;18.75;16.75;;;;;-146.67;49.63;77555.63;5056135;28;62001;-74
2023/12/16 05:05:34;;;;;;;;;18.75;17.25;;;;;-146.67;49.41;77547.66;5061402;28;61763;-75
2023/12/16 05:07:59;;;;;;;;;21.75;17.25;;;;;-146.67;49.59;77549.66;5061430;28;62181;-74
2023/12/16 05:10:24;;;;;;;;;14.75;14.25;;;;;-146.67;49.59;77547.66;5062727;28;61964;-74
2023/12/16 05:12:50;;;;;;;;;13.75;13.75;;;;;-146.67;49.76;77553.66;5064810;28;61643;-74
2023/12/16 05:15:15;;;;;;;;;22.00;16.00;;;;;-146.67;49.35;77575.63;5065137;28;61807;-74
2023/12/16 05:17:40;;;;;;;;;22.25;18.50;;;;;-146.67;49.56;77595.59;5064059;28;61736;-74
2023/12/16 05:20:06;;;;;;;;;18.75;16.50;;;;;-146.67;49.72;77595.59;5063581;28;61759;-74
2023/12/16 05:22:33;;;;;;;;;17.25;13.00;;;;;-146.67;49.93;77579.63;5050263;28;63797;-74
2023/12/16 05:25:00;;;;;;;;;23.00;17.75;;;;;-146.67;49.77;77577.63;5044730;28;61811;-74
2023/12/16 05:27:26;;;;;;;;;21.75;16.00;;;;;-146.67;49.79;77575.63;5044458;28;61838;-74
2023/12/16 05:29:51;;;;;;;;;22.25;16.50;;;;;-146.67;49.62;77577.63;5044770;28;61939;-74
2023/12/16 05:32:17;;;;;;;;;22.50;17.25;;;;;-146.67;49.89;77579.63;5044417;28;61764;-74
2023/12/16 05:34:42;;;;;;;;;22.00;18.25;;;;;-146.67;49.64;77587.59;5044698;28;61752;-74
2023/12/16 05:37:07;;;;;;;;;22.75;18.25;;;;;-146.67;49.45;77609.59;5045359;28;61905;-74
2023/12/16 05:39:33;;;;;;;;;17.25;16.25;;;;;-146.67;49.41;77629.56;5085051;27;61894;-74
2023/12/16 05:41:58;;;;;;;;;22.75;16.00;;;;;-146.67;49.82;77611.59;5084295;27;63014;-74
2023/12/16 05:44:23;;;;;;;;;25.25;17.50;;;;;-146.67;49.78;77611.59;5085119;27;61752;-74
2023/12/16 05:46:49;;;;;;;;;17.75;16.25;;;;;-146.67;49.71;77609.59;5084094;27;61968;-74
2023/12/16 05:49:14;;;;;;;;;16.50;15.00;;;;;-146.67;49.09;77623.56;5083279;27;61795;-74
2023/12/16 05:51:40;;;;;;;;;14.50;12.25;;;;;-146.67;49.02;77631.56;5081382;27;62892;-74
2023/12/16 05:54:08;;;;;;;;;21.50;13.50;;;;;-146.67;48.84;77639.56;5083238;27;61846;-74
2023/12/16 05:56:33;;;;;;;;;20.00;16.00;;;;;-146.67;48.54;77663.53;5057482;28;61843;-74
2023/12/16 05:58:58;;;;;;;;;18.00;15.00;;;;;-146.67;48.87;77667.53;5044373;28;61882;-74
2023/12/16 06:01:24;;;;;;;;;22.00;17.75;;;;;-146.67;49.07;77659.53;5043025;28;62592;-74
2023/12/16 06:03:49;;;;;;;;;16.25;13.25;;;;;-146.67;48.71;77663.53;5044192;28;61964;-74
2023/12/16 06:06:15;;;;;;;;;13.75;12.00;;;;;-146.67;48.74;77671.53;5043614;28;61927;-74
2023/12/16 06:08:41;;;;;;;;;15.25;11.50;;;;;-146.67;48.76;77681.50;5044542;28;62022;-74
2023/12/16 06:11:11;;;;;;;;;20.00;14.50;;;;;-146.67;48.77;77707.50;5043708;28;63034;-74
2023/12/16 06:13:36;;;;;;;;;8.00;8.00;;;;;-146.67;48.98;77713.47;5048151;28;62241;-74
2023/12/16 06:16:02;;;;;;;;;15.50;12.00;;;;;-146.67;49.38;77711.50;5064447;28;61922;-74
2023/12/16 06:18:27;;;;;;;;;17.25;12.00;;;;;-146.67;49.32;77705.50;5063385;28;62266;-74
2023/12/16 06:20:52;;;;;;;;;19.75;13.00;;;;;-146.67;49.30;77703.50;5057674;28;62516;-74
2023/12/16 06:23:18;;;;;;;;;15.50;12.25;;;;;-146.67;49.38;77707.50;5048930;28;61782;-74
2023/12/16 06:25:43;;;;;;;;;13.75;13.50;;;;;-146.67;49.46;77705.50;5064102;28;61839;-74
2023/12/16 06:28:09;;;;;;;;;15.75;12.00;;;;;-146.67;49.29;77717.47;5064251;28;61789;-74
2023/12/16 06:30:34;;;;;;;;;23.00;15.75;;;;;-146.67;49.11;77729.47;5063371;28;62032;-74
2023/12/16 06:33:00;;;;;;;;;17.50;15.25;;;;;-146.67;49.06;77731.47;5061905;28;61967;-74
2023/12/16 06:35:25;;;;;;;;;16.25;15.25;;;;;-146.67;49.01;77741.47;5063223;28;61874;-74
2023/12/16 06:37:50;;;;;;;;;17.00;16.00;;;;;-146.67;49.08;77751.44;5056137;28;61905;-74
2023/12/16 06:40:16;;;;;;;;;17.25;16.50;;;;;-146.67;49.08;77755.44;5043284;28;61803;-74
2023/12/16 06:42:41;;;;;;;;;19.75;14.50;;;;;-146.67;49.32;77747.44;5043658;28;61838;-74
2023/12/16 06:45:08;;;;;;;;;18.00;15.00;;;;;-146.67;49.31;77745.44;5044008;28;62144;-74
2023/12/16 06:47:33;;;;;;;;;21.75;16.75;;;;;-146.67;49.57;77747.44;5044052;28;61759;-74
2023/12/16 06:49:58;;;;;;;;;18.75;14.50;;;;;-146.67;49.63;77751.44;5041964;28;61773;-74
2023/12/16 06:52:24;;;;;;;;;19.00;16.75;;;;;-146.67;49.51;77747.44;5043653;28;61801;-74
2023/12/16 06:54:49;;;;;;;;;26.25;16.75;;;;;-146.67;49.38;77753.44;5043389;28;61848;-74
2023/12/16 06:57:14;;;;;;;;;23.50;15.50;;;;;-146.67;49.61;77753.44;5042273;28;62114;-74
2023/12/16 06:59:40;;;;;;;;;19.75;18.00;;;;;-146.67;49.54;77753.44;5042953;28;62774;-76
2023/12/16 07:02:05;;;;;;;;;14.75;14.75;;;;;-146.67;49.59;77749.44;5042633;28;62023;-76
2023/12/16 07:04:30;;;;;;;;;18.00;15.25;;;;;-146.67;49.60;77753.44;5048235;28;61722;-77
2023/12/16 07:06:56;;;;;;;;;27.00;20.25;;;;;-146.67;49.64;77751.44;5051025;28;61730;-76
2023/12/16 12:13:35;;;;;;;;;11.00;11.00;;;;;-146.67;72.28;77739.47;5114965;27;61911;-74
2023/12/16 12:16:01;;;;;;;;;10.50;9.25;;;;;-146.67;65.26;77633.56;5098733;27;61933;-74
2023/12/16 12:18:27;;;;;;;;;7.75;7.75;;;;;-146.67;60.69;77559.63;5099649;27;62009;-73
2023/12/16 12:20:53;;;;;;;;;8.75;7.25;;;;;-146.67;57.56;77531.66;5100829;27;61883;-74
2023/12/16 12:23:19;;;;;;;;;10.00;7.00;;;;;-146.67;54.97;77515.69;5108161;27;61870;-73
2023/12/16 12:25:52;;;;;;;;;9.25;7.00;;;;;-146.67;53.57;77481.72;5104924;27;61767;-73
2023/12/16 12:28:18;;;;;;;;;12.25;9.00;;;;;-146.67;53.24;77463.75;5098433;27;61811;-76
2023/12/16 12:30:43;;;;;;;;;2.75;2.75;;;;;-146.67;52.94;77429.78;5100350;27;62746;-73
2023/12/16 12:33:10;;;;;;;;;10.25;5.75;;;;;-146.67;51.85;77419.78;5100129;27;61954;-77
2023/12/16 12:35:35;;;;;;;;;8.25;8.25;;;;;-146.67;51.33;77417.78;5108494;27;61987;-74
2023/12/16 12:38:01;;;;;;;;;11.00;7.50;;;;;-146.67;51.38;77405.78;5106706;27;61896;-76
2023/12/16 12:40:28;;;;;;;;;11.25;7.00;;;;;-146.67;49.99;77391.81;5103591;27;62481;-75
2023/12/16 12:42:56;;;;;;;;;7.00;6.00;;;;;-146.67;49.44;77347.84;5097870;27;61810;-75
2023/12/16 12:45:33;;;;;;;;;6.25;4.75;;;;;-146.67;48.41;77265.94;5095786;27;61817;-75
2023/12/16 12:48:15;;;;;;;;;6.50;6.50;;;;;-146.67;47.33;77231.97;5100824;27;61896;-75
2023/12/16 12:50:42;;;;;;;;;10.25;6.50;;;;;-146.67;47.24;77208.00;5099186;27;63735;-75
2023/12/16 12:53:17;;;;;;;;;8.25;8.25;;;;;-146.67;44.44;77142.09;5098285;27;62567;-75
2023/12/16 12:55:43;;;;;;;;;8.50;8.50;;;;;-146.67;43.23;77092.13;5076063;27;61850;-75
2023/12/16 12:58:12;;;;;;;;;9.50;8.75;;;;;-146.67;43.61;77148.06;5095105;27;61798;-74
2023/12/16 13:00:39;;;;;;;;;5.25;5.00;;;;;-146.67;43.19;77214.00;5107999;27;61970;-74
2023/12/16 13:03:04;;;;;;;;;9.25;8.00;;;;;-146.67;44.02;77259.94;5114143;27;61816;-74
2023/12/16 13:05:30;;;;;;;;;9.00;5.00;;;;;-146.67;44.42;77279.94;5106361;27;61930;-74
2023/12/16 13:07:55;;;;;;;;;8.00;7.00;;;;;-146.67;44.91;77299.91;5104845;27;61903;-74
2023/12/16 13:10:21;;;;;;;;;10.75;7.00;;;;;-146.67;44.37;77309.91;5107405;27;61991;-74
2023/12/16 13:12:48;;;;;;;;;10.00;5.25;;;;;-146.67;44.58;77325.88;5107653;27;61939;-74
2023/12/16 13:15:13;;;;;;;;;7.75;5.75;;;;;-146.67;45.09;77291.91;5105626;27;61964;-76
2023/12/16 13:17:39;;;;;;;;;6.25;5.50;;;;;-146.67;43.28;77064.16;5106349;27;61852;-74
2023/12/16 13:20:05;;;;;;;;;9.75;7.25;;;;;-146.67;39.84;76702.59;5105751;27;61848;-75
2023/12/16 13:22:34;;;;;;;;;9.25;7.75;;;;;-146.67;35.72;76422.94;5103782;27;61741;-74
2023/12/16 13:24:59;;;;;;;;;6.25;6.00;;;;;-146.67;34.23;76181.28;5083054;27;61883;-74
2023/12/16 13:27:26;;;;;;;;;6.00;6.00;;;;;-146.67;32.13;76031.47;5095515;27;61853;-75
2023/12/16 13:29:51;;;;;;;;;6.25;6.25;;;;;-146.67;32.37;76199.25;5091049;27;61844;-74
2023/12/16 13:32:16;;;;;;;;;7.25;7.00;;;;;-146.67;33.59;76418.97;5095745;27;61791;-75
2023/12/16 13:34:42;;;;;;;;;5.50;5.25;;;;;-146.67;33.94;76572.75;5104112;27;62021;-75
2023/12/16 13:37:07;;;;;;;;;9.25;7.00;;;;;-146.67;35.47;76722.56;5095706;27;62070;-75
2023/12/16 13:39:33;;;;;;;;;6.25;5.00;;;;;-146.67;36.73;76846.41;5102438;27;63614;-75
2023/12/16 13:41:58;;;;;;;;;7.50;7.50;;;;;-146.67;37.43;76930.31;5095045;27;62006;-74
2023/12/16 13:44:23;;;;;;;;;7.50;3.00;;;;;-146.67;37.62;76984.25;5086222;27;61816;-75
2023/12/16 13:46:49;;;;;;;;;6.25;6.25;;;;;-146.67;38.44;77020.22;5090445;27;61774;-75
2023/12/16 13:49:14;;;;;;;;;6.00;5.75;;;;;-146.67;38.79;77052.19;5093843;27;61972;-75
2023/12/16 13:51:39;;;;;;;;;6.75;3.75;;;;;-146.67;39.38;77086.16;5091786;27;62285;-75
2023/12/16 13:54:05;;;;;;;;;11.00;5.75;;;;;-146.67;39.10;77110.13;5091139;27;62413;-76
2023/12/16 13:56:30;;;;;;;;;11.25;8.00;;;;;-146.67;39.55;77130.09;5094684;27;61860;-75
2023/12/16 13:58:56;;;;;;;;;7.00;6.00;;;;;-146.67;40.25;77142.09;5092280;27;61974;-75
2023/12/16 14:01:21;;;;;;;;;2.00;2.00;;;;;-146.67;40.15;77158.06;5093464;27;61966;-76
2023/12/16 14:03:46;;;;;;;;;7.00;6.00;;;;;-146.67;40.51;77174.03;5094246;27;62245;-76
2023/12/16 14:06:12;;;;;;;;;5.50;3.50;;;;;-146.67;40.50;77188.03;5089121;27;62076;-75
2023/12/16 14:08:38;;;;;;;;;7.25;4.50;;;;;-146.67;40.47;77202.00;5098805;27;64627;-76
2023/12/16 14:11:03;;;;;;;;;4.00;3.00;;;;;-146.67;40.76;77218.00;5083090;27;61731;-75
2023/12/16 14:13:29;;;;;;;;;6.00;3.00;;;;;-146.67;40.87;77230.00;5083382;27;61986;-75
2023/12/16 14:15:55;;;;;;;;;3.50;3.50;;;;;-146.67;41.18;77237.97;5083385;27;61801;-74
2023/12/16 14:18:21;;;;;;;;;5.25;3.00;;;;;-146.67;41.18;77255.97;5080414;28;63701;-75
2023/12/16 14:20:47;;;;;;;;;3.75;3.75;;;;;-146.67;41.51;77259.94;5079066;28;61957;-75
2023/12/16 14:23:13;;;;;;;;;6.00;2.00;;;;;-146.67;41.40;77249.97;5076939;28;61911;-74
2023/12/16 14:25:39;;;;;;;;;6.00;4.25;;;;;-146.67;41.34;77243.97;5080124;27;63026;-75
2023/12/16 14:28:05;;;;;;;;;2.25;2.25;;;;;-146.67;41.13;77243.97;5078474;27;62252;-75
2023/12/16 14:30:31;;;;;;;;;3.75;3.00;;;;;-146.67;41.32;77255.97;5082963;27;61959;-75
2023/12/16 14:32:56;;;;;;;;;4.00;3.00;;;;;-146.67;41.44;77271.94;5083002;28;62002;-75
2023/12/16 14:35:23;;;;;;;;;2.75;2.00;;;;;-146.67;41.18;77285.94;5082372;27;61992;-75
2023/12/16 14:37:49;;;;;;;;;6.50;3.50;;;;;-146.67;41.08;77315.88;5080064;27;62059;-75
2023/12/16 14:40:15;;;;;;;;;10.00;3.00;;;;;-146.67;41.70;77331.88;5081808;28;61926;-75
2023/12/16 14:42:41;;;;;;;;;5.00;3.25;;;;;-146.67;42.33;77325.88;5081028;28;62165;-75
2023/12/16 14:45:07;;;;;;;;;4.00;4.00;;;;;-146.67;42.04;77329.88;5083302;28;62138;-75
2023/12/16 14:47:33;;;;;;;;;2.00;2.00;;;;;-146.67;42.10;77341.88;5083464;27;62441;-75
2023/12/16 14:49:58;;;;;;;;;5.75;3.00;;;;;-146.67;42.06;77339.88;5083016;27;61849;-75
2023/12/16 14:52:23;;;;;;;;;2.00;2.00;;;;;-146.67;42.90;77347.84;5082707;28;61987;-75
2023/12/16 14:54:49;;;;;;;;;8.00;4.25;;;;;-146.67;42.38;77361.84;5081769;28;61829;-75
2023/12/16 14:57:14;;;;;;;;;8.00;3.75;;;;;-146.67;42.69;77369.84;5084586;27;64771;-75
2023/12/16 14:59:39;;;;;;;;;3.00;3.00;;;;;-146.67;42.78;77391.81;5092200;27;62063;-75
2023/12/16 15:02:05;;;;;;;;;2.00;2.00;;;;;-146.67;42.71;77403.78;5093262;27;61966;-75
2023/12/16 15:04:30;;;;;;;;;5.75;2.00;;;;;-146.67;43.00;77409.78;5098756;27;62117;-75
2023/12/16 15:06:58;;;;;;;;;2.75;2.75;;;;;-146.67;43.04;77417.78;5093048;27;62881;-75
2023/12/16 15:09:28;;;;;;;;;3.00;3.00;;;;;-146.67;43.41;77417.78;5094306;27;61788;-75
2023/12/16 15:11:54;;;;;;;;;5.00;3.00;;;;;-146.67;43.16;77427.78;5078276;28;61847;-75
2023/12/16 15:14:20;;;;;;;;;4.00;3.00;;;;;-146.67;43.28;77433.75;5081889;27;61799;-75
2023/12/16 15:16:46;;;;;;;;;3.25;2.75;;;;;-146.67;43.50;77437.75;5088048;27;62583;-75
2023/12/16 15:19:11;;;;;;;;;4.25;3.75;;;;;-146.67;43.78;77439.75;5090903;27;62071;-75
2023/12/16 15:21:39;;;;;;;;;3.75;3.00;;;;;-146.67;44.18;77437.75;5107842;27;62074;-75
2023/12/16 15:24:05;;;;;;;;;5.75;4.00;;;;;-146.67;43.50;77451.75;5091210;27;61797;-75
2023/12/16 15:26:30;;;;;;;;;9.50;6.75;;;;;-146.67;43.57;77455.75;5091761;27;61757;-75
2023/12/16 15:28:55;;;;;;;;;2.75;2.75;;;;;-146.67;43.77;77457.75;5090887;27;61778;-75
2023/12/16 15:31:21;;;;;;;;;3.25;2.00;;;;;-146.67;43.72;77471.72;5093944;27;62803;-75
2023/12/16 15:33:47;;;;;;;;;3.50;3.25;;;;;-146.67;43.95;77489.72;5081964;28;61914;-75
2023/12/16 15:36:12;;;;;;;;;6.25;5.50;;;;;-146.67;44.24;77493.72;5081269;28;62014;-74
2023/12/16 15:38:38;;;;;;;;;3.25;3.00;;;;;-146.67;44.42;77503.69;5081425;27;61813;-75
2023/12/16 15:41:04;;;;;;;;;8.50;4.00;;;;;-146.67;44.34;77503.69;5081168;27;61976;-75
2023/12/16 15:43:30;;;;;;;;;7.00;4.25;;;;;-146.67;44.56;77509.69;5085413;27;61952;-76
2023/12/16 15:45:55;;;;;;;;;11.50;6.00;;;;;-146.67;44.73;77511.69;5086414;27;61769;-75
2023/12/16 15:48:21;;;;;;;;;6.75;4.00;;;;;-146.67;44.68;77519.69;5086705;27;61977;-76
2023/12/16 15:50:47;;;;;;;;;7.25;5.00;;;;;-146.67;45.05;77527.66;5082984;27;62094;-75
2023/12/16 15:53:13;;;;;;;;;7.75;4.50;;;;;-146.67;45.27;77533.66;5079847;27;62241;-75
2023/12/16 15:55:38;;;;;;;;;6.00;5.00;;;;;-146.67;45.24;77535.66;5083951;27;61754;-75
2023/12/16 15:58:04;;;;;;;;;7.75;5.75;;;;;-146.67;45.43;77537.66;5081538;27;61932;-76
2023/12/16 16:00:30;;;;;;;;;13.00;6.25;;;;;-146.67;46.32;77539.66;5079479;27;62180;-75
2023/12/16 16:02:56;;;;;;;;;9.25;6.00;;;;;-146.67;46.07;77543.66;5081082;27;62155;-75
2023/12/16 16:05:21;;;;;;;;;7.50;7.00;;;;;-146.67;46.27;77543.66;5079055;27;61901;-76